createdAt,value
2018-11-26T00:04:15.029Z,22.30
2018-11-26T00:09:18.237Z,21.30
2018-11-26T00:14:21.428Z,21.90
2018-11-26T00:19:24.627Z,19.93
2018-11-26T00:24:27.853Z,20.20
2018-11-26T00:29:31.077Z,21.40
2018-11-26T00:34:34.289Z,22.07
2018-11-26T00:39:37.533Z,22.50
2018-11-26T00:44:40.742Z,19.00
2018-11-26T00:49:43.959Z,20.03
2018-11-26T00:54:47.160Z,20.57
2018-11-26T00:59:50.369Z,21.57
2018-11-26T01:04:53.581Z,19.33
2018-11-26T01:09:56.806Z,20.80
2018-11-26T01:15:00.055Z,21.57
2018-11-26T01:20:03.258Z,22.03
2018-11-26T01:25:06.533Z,22.13
2018-11-26T01:30:09.940Z,20.40
2018-11-26T01:35:13.157Z,20.60
2018-11-26T01:40:22.426Z,19.33
2018-11-26T01:45:25.651Z,18.70
2018-11-26T01:50:28.877Z,22.13
2018-11-26T01:55:32.100Z,21.67
2018-11-26T02:00:35.329Z,20.03
2018-11-26T02:05:38.552Z,19.87
2018-11-26T02:10:41.786Z,22.23
2018-11-26T02:15:45.046Z,19.30
2018-11-26T02:20:48.264Z,20.30
2018-11-26T02:25:51.501Z,21.90
2018-11-26T02:30:54.733Z,20.17
2018-11-26T02:35:57.960Z,23.17
2018-11-26T02:41:01.226Z,19.37
2018-11-26T02:46:04.436Z,22.83
2018-11-26T02:51:07.677Z,21.43
2018-11-26T02:56:10.921Z,20.70
2018-11-26T03:01:14.169Z,18.57
2018-11-26T03:06:17.404Z,22.40
2018-11-26T03:11:20.711Z,22.07
2018-11-26T03:16:23.949Z,20.70
2018-11-26T03:21:27.180Z,23.23
2018-11-26T03:26:30.426Z,22.10
2018-11-26T03:31:33.670Z,21.30
2018-11-26T03:36:36.918Z,22.47
2018-11-26T03:41:40.173Z,22.50
2018-11-26T03:46:43.455Z,22.60
2018-11-26T03:51:46.709Z,21.27
2018-11-26T03:56:49.959Z,22.77
2018-11-26T04:01:53.214Z,22.30
2018-11-26T04:06:56.466Z,19.50
2018-11-26T04:11:59.718Z,23.17
2018-11-26T04:17:05.637Z,20.90
2018-11-26T04:22:08.872Z,21.93
2018-11-26T04:27:12.124Z,20.40
2018-11-26T04:32:15.377Z,20.83
2018-11-26T04:37:18.637Z,21.17
2018-11-26T04:42:21.881Z,22.47
2018-11-26T04:47:25.152Z,20.30
2018-11-26T04:52:28.405Z,18.33
2018-11-26T04:57:31.654Z,20.43
2018-11-26T05:02:34.923Z,21.77
2018-11-26T05:07:38.157Z,20.90
2018-11-26T05:12:41.394Z,20.77
2018-11-26T05:17:44.670Z,20.10
2018-11-26T05:22:47.928Z,21.80
2018-11-26T05:27:51.206Z,19.90
2018-11-26T05:32:54.453Z,20.30
2018-11-26T05:37:57.722Z,20.47
2018-11-26T05:43:00.984Z,20.43
2018-11-26T05:48:04.265Z,19.00
2018-11-26T05:53:07.608Z,19.73
2018-11-26T05:58:10.858Z,20.10
2018-11-26T06:03:14.125Z,20.07
2018-11-26T06:08:17.380Z,20.90
2018-11-26T06:13:20.653Z,19.60
2018-11-26T06:18:23.907Z,19.83
2018-11-26T06:23:27.157Z,18.57
2018-11-26T06:28:30.409Z,17.63
2018-11-26T06:33:33.674Z,17.83
2018-11-26T06:38:36.945Z,20.07
2018-11-26T06:43:40.193Z,21.97
2018-11-26T06:48:43.473Z,19.40
2018-11-26T06:53:46.741Z,20.43
2018-11-26T06:58:49.979Z,20.10
2018-11-26T07:03:53.224Z,19.30
2018-11-26T07:08:56.472Z,19.80
2018-11-26T07:13:59.729Z,19.90
2018-11-26T07:19:02.979Z,19.87
2018-11-26T07:24:06.240Z,18.93
2018-11-26T07:29:09.500Z,18.87
2018-11-26T07:34:12.736Z,19.10
2018-11-26T07:39:15.977Z,20.07
2018-11-26T07:44:19.229Z,20.20
2018-11-26T07:49:23.390Z,19.50
2018-11-26T07:54:25.757Z,19.73
2018-11-26T07:59:29.017Z,18.70
2018-11-26T08:04:32.266Z,21.77
2018-11-26T08:09:35.505Z,19.40
2018-11-26T08:14:38.777Z,20.33
2018-11-26T08:19:42.037Z,21.43
2018-11-26T08:24:45.321Z,21.23
2018-11-26T08:29:48.593Z,22.80
2018-11-26T08:34:51.828Z,20.27
2018-11-26T08:39:55.905Z,20.53
2018-11-26T08:45:04.661Z,20.07
2018-11-26T08:50:09.256Z,19.37
2018-11-26T08:55:12.537Z,21.50
2018-11-26T09:00:15.938Z,24.33
2018-11-26T09:05:27.151Z,20.77
2018-11-26T09:10:30.385Z,21.43
2018-11-26T09:15:33.625Z,22.27
2018-11-26T09:20:36.889Z,22.70
2018-11-26T09:25:40.126Z,22.70
2018-11-26T09:30:43.558Z,22.80
2018-11-26T09:35:46.832Z,23.37
2018-11-26T09:40:50.095Z,24.50
2018-11-26T09:45:53.404Z,26.20
2018-11-26T09:50:56.664Z,26.90
2018-11-26T09:55:59.921Z,27.23
2018-11-26T10:01:03.181Z,28.77
2018-11-26T10:06:06.453Z,27.67
2018-11-26T10:11:09.697Z,27.47
2018-11-26T10:16:12.969Z,30.90
2018-11-26T10:21:16.218Z,29.83
2018-11-26T10:26:19.489Z,29.10
2018-11-26T10:31:22.749Z,31.67
2018-11-26T10:36:26.033Z,28.57
2018-11-26T10:41:29.269Z,30.10
2018-11-26T10:46:32.573Z,29.67
2018-11-26T10:51:35.845Z,32.87
2018-11-26T10:56:39.133Z,32.30
2018-11-26T11:01:47.173Z,32.20
2018-11-26T11:06:55.673Z,32.27
2018-11-26T11:11:53.684Z,31.97
2018-11-26T11:16:56.957Z,32.60
2018-11-26T11:22:00.180Z,30.60
2018-11-26T11:27:03.433Z,33.97
2018-11-26T11:32:06.705Z,31.20
2018-11-26T11:37:09.946Z,29.60
2018-11-26T11:42:13.202Z,29.70
2018-11-26T11:47:16.470Z,29.80
2018-11-26T11:52:19.718Z,32.27
2018-11-26T11:57:22.983Z,34.70
2018-11-26T12:02:26.229Z,32.07
2018-11-26T12:07:29.482Z,30.20
2018-11-26T12:12:32.739Z,34.17
2018-11-26T12:17:36.002Z,32.13
2018-11-26T12:22:39.290Z,31.57
2018-11-26T12:27:42.550Z,29.47
2018-11-26T12:32:45.800Z,32.80
2018-11-26T12:37:49.030Z,31.90
2018-11-26T12:42:54.638Z,29.27
2018-11-26T12:47:58.047Z,31.10
2018-11-26T12:53:01.322Z,32.70
2018-11-26T12:58:04.726Z,31.90
2018-11-26T13:03:12.393Z,30.13
2018-11-26T13:08:15.630Z,30.80
2018-11-26T13:13:18.890Z,30.57
2018-11-26T13:18:22.159Z,30.87
2018-11-26T13:23:25.414Z,29.97
2018-11-26T13:28:28.670Z,31.63
2018-11-26T13:33:31.966Z,30.27
2018-11-26T13:38:35.202Z,29.50
2018-11-26T13:43:38.482Z,29.53
2018-11-26T13:48:41.746Z,28.50
2018-11-26T13:53:45.015Z,30.37
2018-11-26T13:58:48.294Z,32.33
2018-11-26T14:03:51.554Z,27.70
2018-11-26T14:08:54.795Z,29.00
2018-11-26T14:13:58.042Z,29.50
2018-11-26T14:19:01.306Z,26.43
2018-11-26T14:24:04.583Z,28.10
2018-11-26T14:29:07.839Z,27.83
2018-11-26T14:34:11.090Z,27.83
2018-11-26T14:39:14.325Z,29.43
2018-11-26T14:44:17.586Z,29.20
2018-11-26T14:49:20.858Z,27.47
2018-11-26T14:54:24.111Z,28.70
2018-11-26T14:59:27.372Z,27.33
2018-11-26T15:04:30.614Z,26.87
2018-11-26T15:09:33.932Z,28.50
2018-11-26T15:14:37.186Z,27.17
2018-11-26T15:19:40.466Z,27.40
2018-11-26T15:24:43.729Z,28.30
2018-11-26T15:29:47.010Z,27.73
2018-11-26T15:34:50.258Z,28.30
2018-11-26T15:39:53.518Z,27.50
2018-11-26T15:44:56.771Z,27.50
2018-11-26T15:50:00.051Z,26.33
2018-11-26T15:55:03.352Z,28.30
2018-11-26T16:00:11.736Z,25.73
2018-11-26T16:05:18.958Z,25.53
2018-11-26T16:10:22.195Z,26.30
2018-11-26T16:15:27.018Z,25.53
2018-11-26T16:20:30.247Z,25.30
2018-11-26T16:25:33.483Z,25.90
2018-11-26T16:30:36.722Z,27.00
2018-11-26T16:35:39.988Z,24.40
2018-11-26T16:40:43.253Z,25.80
2018-11-26T16:45:46.547Z,29.27
2018-11-26T16:50:49.839Z,26.10
2018-11-26T16:55:53.095Z,25.30
2018-11-26T17:00:56.375Z,24.50
2018-11-26T17:05:59.639Z,26.80
2018-11-26T17:11:02.923Z,26.10
2018-11-26T17:16:06.219Z,25.87
2018-11-26T17:21:09.471Z,24.67
2018-11-26T17:26:12.730Z,22.40
2018-11-26T17:31:15.978Z,23.33
2018-11-26T17:36:19.218Z,24.47
2018-11-26T17:41:22.476Z,23.37
2018-11-26T17:46:25.770Z,21.87
2018-11-26T17:51:29.034Z,23.50
2018-11-26T17:56:32.299Z,22.23
2018-11-26T18:01:39.938Z,14.58
2018-11-26T18:06:47.484Z,23.30
2018-11-26T18:11:46.622Z,21.27
2018-11-26T18:16:49.886Z,20.90
2018-11-26T18:21:53.166Z,22.57
2018-11-26T18:26:56.439Z,20.33
2018-11-26T18:31:59.719Z,20.97
2018-11-26T18:37:02.989Z,19.97
2018-11-26T18:42:06.273Z,20.57
2018-11-26T18:47:09.571Z,21.47
2018-11-26T18:52:12.826Z,19.87
2018-11-26T18:57:16.077Z,21.50
2018-11-26T19:02:19.336Z,21.10
2018-11-26T19:07:22.603Z,20.70
2018-11-26T19:12:25.891Z,22.87
2018-11-26T19:17:29.159Z,19.97
2018-11-26T19:22:32.435Z,20.63
2018-11-26T19:27:35.715Z,21.90
2018-11-26T19:32:39.104Z,21.17
2018-11-26T19:37:42.374Z,20.67
2018-11-26T19:42:46.328Z,22.40
2018-11-26T19:47:49.641Z,21.70
2018-11-26T19:52:53.732Z,20.73
2018-11-26T19:57:57.966Z,22.00
2018-11-26T20:03:18.938Z,21.60
2018-11-26T20:08:22.202Z,23.70
2018-11-26T20:13:25.479Z,23.13
2018-11-26T20:18:28.775Z,22.53
2018-11-26T20:23:32.103Z,25.10
2018-11-26T20:28:35.373Z,23.37
2018-11-26T20:33:38.687Z,24.37
2018-11-26T20:38:41.938Z,23.93
2018-11-26T20:43:45.192Z,23.07
2018-11-26T20:48:49.304Z,21.43
2018-11-26T20:53:52.578Z,24.07
2018-11-26T20:58:55.838Z,23.63
2018-11-26T21:03:59.090Z,22.37
2018-11-26T21:09:02.354Z,22.60
2018-11-26T21:14:05.631Z,23.07
2018-11-26T21:19:08.897Z,23.17
2018-11-26T21:24:12.131Z,24.93
2018-11-26T21:29:15.410Z,21.77
2018-11-26T21:34:18.681Z,21.20
2018-11-26T21:39:21.946Z,22.67
2018-11-26T21:44:25.207Z,20.83
2018-11-26T21:49:28.494Z,20.37
2018-11-26T21:54:31.746Z,20.80
2018-11-26T21:59:34.994Z,21.50
2018-11-26T22:04:39.122Z,22.93
2018-11-26T22:09:42.435Z,21.33
2018-11-26T22:14:45.685Z,20.50
2018-11-26T22:19:48.971Z,20.37
2018-11-26T22:24:52.436Z,20.93
2018-11-26T22:29:55.582Z,20.83
2018-11-26T22:34:58.868Z,22.80
2018-11-26T22:40:02.224Z,21.37
2018-11-26T22:45:08.070Z,20.20
2018-11-26T22:50:12.823Z,19.90
2018-11-26T22:55:16.142Z,18.67
2018-11-26T23:00:27.216Z,22.33
2018-11-26T23:05:30.472Z,22.37
2018-11-26T23:10:33.741Z,21.83
2018-11-26T23:15:37.039Z,21.07
2018-11-26T23:20:40.339Z,20.87
2018-11-26T23:25:43.621Z,21.93
2018-11-26T23:30:46.908Z,20.60
2018-11-26T23:35:50.166Z,22.17
2018-11-26T23:40:53.465Z,21.53
2018-11-26T23:45:56.732Z,21.50
2018-11-26T23:51:00.002Z,19.97
2018-11-26T23:56:03.265Z,21.97
